createdAt,value
2023-05-09T00:00:00.012Z,32.32
2023-05-09T00:01:00.057Z,32.30
2023-05-09T00:02:00.249Z,32.28
2023-05-09T00:03:00.345Z,32.30
2023-05-09T00:04:00.291Z,32.31
2023-05-09T00:05:00.322Z,32.26
2023-05-09T00:06:00.437Z,32.31
2023-05-09T00:07:00.415Z,32.31
2023-05-09T00:08:00.481Z,32.29
2023-05-09T00:09:00.560Z,32.28
2023-05-09T00:10:00.594Z,32.31
2023-05-09T00:11:00.665Z,32.26
2023-05-09T00:12:00.731Z,32.26
2023-05-09T00:13:00.875Z,32.32
2023-05-09T00:14:00.864Z,32.30
2023-05-09T00:15:00.902Z,32.24
2023-05-09T00:16:01.006Z,32.29
2023-05-09T00:17:01.058Z,32.26
2023-05-09T00:18:01.260Z,32.28
2023-05-09T00:19:01.175Z,32.25
2023-05-09T00:20:01.243Z,32.26
2023-05-09T00:21:01.289Z,32.26
2023-05-09T00:22:01.426Z,32.25
2023-05-09T00:23:01.395Z,32.26
2023-05-09T00:24:01.485Z,32.29
2023-05-09T00:25:01.581Z,32.25
2023-05-09T00:26:01.611Z,32.28
2023-05-09T00:27:01.673Z,32.26
2023-05-09T00:28:01.724Z,32.26
2023-05-09T00:29:01.823Z,32.19
2023-05-09T00:30:01.864Z,32.25
2023-05-09T00:31:01.930Z,32.21
2023-05-09T00:32:02.007Z,32.22
2023-05-09T00:33:02.122Z,32.22
2023-05-09T00:34:02.125Z,32.19
2023-05-09T00:35:02.214Z,32.24
2023-05-09T00:36:02.240Z,32.24
2023-05-09T00:37:02.330Z,32.19
2023-05-09T00:38:02.457Z,32.25
2023-05-09T00:39:02.445Z,32.19
2023-05-09T00:40:02.558Z,32.25
2023-05-09T00:41:02.557Z,32.16
2023-05-09T00:42:02.622Z,32.25
2023-05-09T00:43:02.729Z,32.22
2023-05-09T00:44:02.750Z,32.25
2023-05-09T00:45:02.846Z,32.23
2023-05-09T00:46:02.937Z,32.19
2023-05-09T00:47:02.963Z,32.23
2023-05-09T00:48:03.141Z,32.18
2023-05-09T00:49:03.054Z,32.18
2023-05-09T00:50:03.119Z,32.22
2023-05-09T00:51:03.199Z,32.23
2023-05-09T00:52:03.226Z,32.23
2023-05-09T00:53:03.299Z,32.21
2023-05-09T00:54:03.440Z,32.21
2023-05-09T00:55:03.433Z,32.22
2023-05-09T00:56:03.430Z,32.17
2023-05-09T00:57:03.525Z,32.19
2023-05-09T00:58:03.597Z,32.19
2023-05-09T00:59:03.649Z,32.17
2023-05-09T01:00:03.771Z,32.18
2023-05-09T01:01:03.852Z,32.16
2023-05-09T01:02:03.841Z,32.16
2023-05-09T01:03:03.942Z,32.15
2023-05-09T01:04:03.942Z,32.18
2023-05-09T01:05:04.011Z,32.17
2023-05-09T01:06:04.094Z,32.14
2023-05-09T01:07:04.122Z,32.21
2023-05-09T01:08:04.237Z,32.21
2023-05-09T01:09:04.264Z,32.19
2023-05-09T01:10:04.407Z,32.15
2023-05-09T01:11:04.371Z,32.15
2023-05-09T01:12:04.421Z,32.16
2023-05-09T01:13:04.524Z,32.11
2023-05-09T01:14:04.508Z,32.19
2023-05-09T01:15:04.596Z,32.15
2023-05-09T01:16:04.647Z,32.14
2023-05-09T01:17:04.652Z,32.16
2023-05-09T01:18:04.731Z,32.19
2023-05-09T01:19:04.714Z,32.14
2023-05-09T01:20:04.775Z,32.16
2023-05-09T01:21:04.787Z,32.16
2023-05-09T01:22:04.888Z,32.14
2023-05-09T01:23:04.966Z,32.15
2023-05-09T01:24:04.967Z,32.15
2023-05-09T01:25:05.034Z,32.10
2023-05-09T01:26:05.148Z,32.18
2023-05-09T01:27:05.117Z,32.15
2023-05-09T01:28:05.193Z,32.15
2023-05-09T01:29:05.246Z,32.17
2023-05-09T01:30:05.305Z,32.18
2023-05-09T01:31:05.477Z,32.18
2023-05-09T01:32:05.419Z,32.12
2023-05-09T01:33:05.572Z,32.13
2023-05-09T01:34:05.681Z,32.09
2023-05-09T01:35:05.702Z,32.09
2023-05-09T01:36:05.662Z,32.15
2023-05-09T01:37:05.741Z,32.09
2023-05-09T01:38:05.766Z,32.06
2023-05-09T01:39:05.818Z,32.11
2023-05-09T01:40:05.894Z,32.09
2023-05-09T01:41:05.934Z,32.14
2023-05-09T01:42:06.077Z,32.08
2023-05-09T01:43:06.044Z,32.10
2023-05-09T01:44:06.140Z,32.12
2023-05-09T01:45:06.213Z,32.13
2023-05-09T01:46:06.291Z,32.12
2023-05-09T01:47:06.269Z,32.12
2023-05-09T01:48:06.392Z,32.13
2023-05-09T01:49:06.365Z,32.09
2023-05-09T01:50:06.399Z,32.10
2023-05-09T01:51:06.468Z,32.12
2023-05-09T01:52:06.529Z,32.12
2023-05-09T01:53:06.552Z,32.08
2023-05-09T01:54:06.647Z,32.09
2023-05-09T01:55:06.656Z,32.12
2023-05-09T01:56:06.704Z,32.13
2023-05-09T01:57:06.744Z,32.15
2023-05-09T01:58:06.861Z,32.09
2023-05-09T01:59:06.849Z,32.10
2023-05-09T02:00:06.891Z,32.09
2023-05-09T02:01:06.958Z,32.08
2023-05-09T02:02:06.962Z,32.12
2023-05-09T02:03:07.017Z,32.09
2023-05-09T02:04:07.004Z,32.10
2023-05-09T02:05:07.093Z,32.03
2023-05-09T02:06:07.121Z,32.07
2023-05-09T02:07:07.158Z,32.10
2023-05-09T02:08:07.198Z,32.12
2023-05-09T02:09:07.258Z,32.06
2023-05-09T02:10:07.319Z,32.13
2023-05-09T02:11:07.346Z,32.08
2023-05-09T02:12:07.316Z,32.09
2023-05-09T02:13:07.364Z,32.12
2023-05-09T02:14:07.433Z,32.08
2023-05-09T02:15:07.394Z,32.09
2023-05-09T02:16:07.465Z,32.05
2023-05-09T02:17:07.432Z,32.08
2023-05-09T02:18:07.506Z,32.06
2023-05-09T02:19:07.485Z,32.09
2023-05-09T02:20:07.495Z,32.03
2023-05-09T02:21:07.556Z,32.10
2023-05-09T02:22:07.605Z,32.06
2023-05-09T02:23:07.551Z,32.09
2023-05-09T02:24:07.610Z,32.10
2023-05-09T02:25:07.650Z,32.09
2023-05-09T02:26:07.666Z,32.09
2023-05-09T02:27:07.715Z,32.05
2023-05-09T02:28:07.769Z,32.05
2023-05-09T02:29:07.793Z,32.10
2023-05-09T02:30:07.932Z,32.06
2023-05-09T02:31:07.872Z,32.08
2023-05-09T02:32:07.981Z,32.03
2023-05-09T02:33:07.938Z,32.09
2023-05-09T02:34:07.927Z,32.05
2023-05-09T02:35:07.960Z,32.05
2023-05-09T02:36:07.960Z,32.05
2023-05-09T02:37:08.013Z,32.05
2023-05-09T02:38:08.021Z,32.09
2023-05-09T02:39:08.033Z,32.08
2023-05-09T02:40:08.022Z,32.08
2023-05-09T02:41:07.990Z,32.03
2023-05-09T02:42:08.040Z,32.03
2023-05-09T02:43:08.054Z,32.03
2023-05-09T02:44:08.047Z,32.08
2023-05-09T02:45:08.075Z,32.09
2023-05-09T02:46:08.167Z,32.06
2023-05-09T02:47:08.069Z,32.12
2023-05-09T02:48:09.033Z,32.10
2023-05-09T02:49:08.119Z,32.05
2023-05-09T02:50:08.158Z,32.05
2023-05-09T02:51:08.210Z,32.03
2023-05-09T02:52:08.237Z,32.08
2023-05-09T02:53:08.217Z,32.05
2023-05-09T02:54:08.231Z,32.05
2023-05-09T02:55:08.274Z,32.05
2023-05-09T02:56:08.282Z,32.05
2023-05-09T02:57:08.281Z,32.10
2023-05-09T02:58:14.014Z,32.06
2023-05-09T02:59:09.338Z,32.05
2023-05-09T03:00:08.320Z,32.05
2023-05-09T03:01:08.365Z,32.06
2023-05-09T03:02:08.419Z,32.03
2023-05-09T03:03:08.508Z,32.03
2023-05-09T03:04:08.310Z,32.10
2023-05-09T03:05:08.305Z,32.05
2023-05-09T03:06:08.281Z,32.06
2023-05-09T03:07:08.245Z,32.03
2023-05-09T03:08:08.386Z,32.02
2023-05-09T03:09:08.275Z,31.98
2023-05-09T03:10:08.288Z,32.01
2023-05-09T03:11:08.247Z,32.01
2023-05-09T03:12:08.252Z,32.03
2023-05-09T03:13:08.301Z,32.03
2023-05-09T03:14:08.289Z,32.06
2023-05-09T03:15:08.201Z,31.99
2023-05-09T03:16:08.242Z,32.08
2023-05-09T03:17:08.227Z,32.07
2023-05-09T03:18:08.326Z,32.08
2023-05-09T03:19:08.242Z,32.01
2023-05-09T03:20:08.236Z,32.03
2023-05-09T03:21:08.273Z,32.03
2023-05-09T03:22:08.320Z,32.05
2023-05-09T03:23:08.373Z,31.98
2023-05-09T03:24:08.368Z,32.01
2023-05-09T03:25:08.365Z,32.03
2023-05-09T03:26:08.395Z,32.02
2023-05-09T03:27:08.409Z,32.10
2023-05-09T03:28:08.464Z,31.99
2023-05-09T03:29:08.472Z,32.01
2023-05-09T03:30:08.476Z,32.02
2023-05-09T03:31:08.521Z,32.06
2023-05-09T03:32:08.540Z,32.04
2023-05-09T03:33:08.578Z,32.03
2023-05-09T03:34:08.667Z,32.00
2023-05-09T03:35:08.578Z,32.02
2023-05-09T03:36:08.560Z,32.05
2023-05-09T03:37:08.638Z,32.02
2023-05-09T03:38:08.680Z,31.98
2023-05-09T03:39:08.600Z,32.00
2023-05-09T03:40:08.668Z,32.04
2023-05-09T03:41:08.697Z,32.05
2023-05-09T03:42:08.689Z,31.99
2023-05-09T03:43:08.717Z,32.03
2023-05-09T03:44:08.714Z,32.04
2023-05-09T03:45:08.703Z,32.00
2023-05-09T03:46:08.749Z,31.99
2023-05-09T03:47:08.765Z,32.03
2023-05-09T03:48:08.829Z,32.04
2023-05-09T03:49:08.772Z,32.02
2023-05-09T03:50:08.856Z,32.03
2023-05-09T03:51:08.767Z,32.02
2023-05-09T03:52:08.782Z,32.03
2023-05-09T03:53:08.794Z,31.99
2023-05-09T03:54:08.793Z,32.00
2023-05-09T03:55:08.766Z,32.02
2023-05-09T03:56:08.771Z,31.99
2023-05-09T03:57:08.782Z,32.02
2023-05-09T03:58:08.781Z,31.98
2023-05-09T03:59:08.782Z,32.02
2023-05-09T04:00:08.789Z,31.99
2023-05-09T04:01:08.788Z,31.98
2023-05-09T04:02:08.881Z,32.02
2023-05-09T04:03:09.040Z,31.99
2023-05-09T04:04:08.954Z,32.13
2023-05-09T04:05:08.859Z,32.33
2023-05-09T04:06:09.023Z,32.33
2023-05-09T04:07:08.961Z,32.48
2023-05-09T04:08:09.046Z,32.48
2023-05-09T04:09:09.075Z,32.53
2023-05-09T04:10:09.160Z,32.58
2023-05-09T04:11:09.216Z,32.69
2023-05-09T04:12:09.288Z,32.80
2023-05-09T04:13:09.320Z,32.76
2023-05-09T04:14:09.352Z,32.82
2023-05-09T04:15:09.443Z,32.90
2023-05-09T04:16:09.500Z,33.01
2023-05-09T04:17:09.696Z,33.02
2023-05-09T04:18:09.698Z,33.09
2023-05-09T04:19:09.683Z,33.13
2023-05-09T04:20:09.750Z,33.21
2023-05-09T04:21:09.755Z,33.21
2023-05-09T04:22:09.928Z,33.25
2023-05-09T04:23:09.870Z,33.31
2023-05-09T04:24:09.982Z,33.35
2023-05-09T04:25:09.991Z,33.32
2023-05-09T04:26:10.033Z,33.39
2023-05-09T04:27:10.096Z,33.38
2023-05-09T04:28:10.134Z,33.45
2023-05-09T04:29:10.138Z,33.43
2023-05-09T04:30:10.221Z,33.49
2023-05-09T04:31:10.322Z,33.47
2023-05-09T04:32:10.380Z,33.44
2023-05-09T04:33:10.345Z,33.43
2023-05-09T04:34:10.238Z,33.39
2023-05-09T04:35:10.253Z,33.39
2023-05-09T04:36:10.272Z,33.35
2023-05-09T04:37:10.278Z,33.34
2023-05-09T04:38:10.334Z,33.31
2023-05-09T04:39:10.228Z,33.33
2023-05-09T04:40:10.219Z,33.26
2023-05-09T04:41:10.239Z,33.22
2023-05-09T04:42:10.250Z,33.22
2023-05-09T04:43:10.216Z,33.21
2023-05-09T04:44:10.220Z,33.18
2023-05-09T04:45:10.184Z,33.08
2023-05-09T04:46:10.248Z,33.07
2023-05-09T04:47:10.243Z,33.05
2023-05-09T04:48:10.204Z,33.03
2023-05-09T04:49:10.176Z,33.05
2023-05-09T04:50:10.194Z,33.00
2023-05-09T04:51:10.206Z,33.00
2023-05-09T04:52:10.227Z,32.93
2023-05-09T04:53:10.167Z,32.97
2023-05-09T04:54:10.277Z,32.93
2023-05-09T04:55:10.192Z,32.92
2023-05-09T04:56:10.190Z,32.89
2023-05-09T04:57:17.923Z,32.89
2023-05-09T04:58:11.172Z,32.89
2023-05-09T04:59:10.135Z,32.86
2023-05-09T05:00:10.154Z,32.87
2023-05-09T05:01:10.167Z,32.88
2023-05-09T05:02:10.129Z,32.88
2023-05-09T05:03:10.230Z,32.85
2023-05-09T05:04:10.151Z,32.84
2023-05-09T05:05:12.352Z,32.88
2023-05-09T05:06:10.326Z,32.91
2023-05-09T05:07:10.324Z,32.83
2023-05-09T05:08:10.272Z,32.77
2023-05-09T05:09:10.306Z,32.84
2023-05-09T05:10:10.308Z,32.81
2023-05-09T05:11:10.312Z,32.80
2023-05-09T05:12:10.238Z,32.80
2023-05-09T05:13:10.366Z,32.84
2023-05-09T05:14:10.289Z,32.87
2023-05-09T05:15:10.271Z,32.77
2023-05-09T05:16:10.338Z,32.80
2023-05-09T05:17:10.288Z,32.74
2023-05-09T05:18:10.358Z,32.77
2023-05-09T05:19:10.288Z,32.74
2023-05-09T05:20:10.274Z,32.74
2023-05-09T05:21:10.279Z,32.73
2023-05-09T05:22:10.268Z,32.70
2023-05-09T05:23:10.331Z,32.80
2023-05-09T05:24:10.296Z,32.70
2023-05-09T05:25:10.299Z,32.72
2023-05-09T05:26:10.442Z,32.77
2023-05-09T05:27:10.357Z,32.75
2023-05-09T05:28:10.426Z,32.79
2023-05-09T05:29:10.559Z,32.69
2023-05-09T05:30:10.453Z,32.72
2023-05-09T05:31:10.572Z,32.72
2023-05-09T05:32:10.548Z,32.68
2023-05-09T05:33:10.609Z,33.31
2023-05-09T05:34:10.626Z,33.18
2023-05-09T05:35:10.718Z,33.42
2023-05-09T05:36:10.788Z,33.65
2023-05-09T05:37:10.804Z,33.79
2023-05-09T05:38:10.881Z,33.67
2023-05-09T05:39:10.938Z,33.65
2023-05-09T05:40:11.032Z,33.76
2023-05-09T05:41:11.007Z,34.75
2023-05-09T05:42:11.139Z,35.19
2023-05-09T05:43:11.097Z,36.45
2023-05-09T05:44:11.160Z,36.91
2023-05-09T05:45:11.248Z,35.36
2023-05-09T05:46:11.284Z,35.24
2023-05-09T05:47:11.326Z,36.24
2023-05-09T05:48:11.438Z,35.59
2023-05-09T05:49:11.420Z,36.06
2023-05-09T05:50:11.498Z,36.06
2023-05-09T05:51:11.589Z,35.89
2023-05-09T05:52:11.606Z,35.71
2023-05-09T05:53:11.711Z,35.61
2023-05-09T05:54:11.725Z,35.65
2023-05-09T05:55:11.857Z,35.62
2023-05-09T05:56:11.893Z,35.69
2023-05-09T05:57:11.907Z,35.65
2023-05-09T05:58:12.022Z,35.61
2023-05-09T05:59:13.384Z,35.51
2023-05-09T06:00:12.067Z,35.58
2023-05-09T06:01:12.198Z,35.74
2023-05-09T06:02:12.197Z,35.76
2023-05-09T06:03:12.374Z,35.68
2023-05-09T06:04:12.370Z,35.71
2023-05-09T06:05:12.679Z,35.71
2023-05-09T06:06:12.440Z,35.70
2023-05-09T06:07:12.515Z,35.75
2023-05-09T06:08:12.588Z,35.87
2023-05-09T06:09:12.643Z,35.94
2023-05-09T06:10:12.684Z,35.90
2023-05-09T06:11:12.756Z,35.92
2023-05-09T06:12:12.786Z,35.90
2023-05-09T06:13:12.962Z,35.90
2023-05-09T06:14:13.032Z,35.94
2023-05-09T06:15:13.336Z,35.82
2023-05-09T06:16:19.295Z,35.83
2023-05-09T06:17:14.104Z,35.81
2023-05-09T06:18:13.050Z,35.84
2023-05-09T06:19:13.057Z,35.88
2023-05-09T06:20:13.012Z,35.88
2023-05-09T06:21:12.983Z,35.96
2023-05-09T06:22:12.990Z,35.90
2023-05-09T06:23:13.023Z,35.97
2023-05-09T06:24:20.116Z,35.95
2023-05-09T06:25:14.289Z,35.95
2023-05-09T06:26:12.975Z,36.06
2023-05-09T06:27:12.959Z,36.03
2023-05-09T06:28:12.966Z,36.05
2023-05-09T06:29:12.985Z,36.10
2023-05-09T06:30:24.539Z,36.00
2023-05-09T06:31:14.131Z,36.04
2023-05-09T06:32:12.968Z,35.99
2023-05-09T06:33:12.944Z,35.96
2023-05-09T06:34:12.976Z,36.01
2023-05-09T06:35:13.165Z,35.93
2023-05-09T06:36:13.035Z,35.98
2023-05-09T06:37:12.966Z,35.97
2023-05-09T06:38:12.938Z,36.00
2023-05-09T06:39:12.901Z,35.95
2023-05-09T06:40:13.015Z,36.00
2023-05-09T06:41:12.996Z,35.95
2023-05-09T06:42:13.069Z,35.98
2023-05-09T06:43:13.155Z,35.94
2023-05-09T06:44:13.190Z,35.90
2023-05-09T06:45:13.409Z,35.91
2023-05-09T06:46:13.390Z,35.84
2023-05-09T06:47:13.257Z,35.84
2023-05-09T06:48:13.349Z,35.81
2023-05-09T06:49:13.354Z,35.72
2023-05-09T06:50:13.424Z,35.77
2023-05-09T06:51:13.490Z,35.75
2023-05-09T06:52:13.544Z,35.69
2023-05-09T06:53:13.558Z,35.68
2023-05-09T06:54:13.594Z,35.67
2023-05-09T06:55:13.797Z,35.68
2023-05-09T06:56:13.737Z,35.61
2023-05-09T06:57:13.744Z,35.67
2023-05-09T06:58:13.827Z,35.68
2023-05-09T06:59:13.898Z,35.63
2023-05-09T07:00:14.039Z,35.68
2023-05-09T07:01:13.991Z,35.59
2023-05-09T07:02:14.119Z,35.63
2023-05-09T07:03:14.054Z,35.58
2023-05-09T07:04:14.146Z,35.65
2023-05-09T07:05:14.306Z,35.65
2023-05-09T07:06:14.212Z,35.66
2023-05-09T07:07:14.267Z,35.66
2023-05-09T07:08:14.334Z,35.63
2023-05-09T07:09:14.331Z,35.66
2023-05-09T07:10:14.353Z,35.65
2023-05-09T07:11:14.401Z,35.66
2023-05-09T07:12:14.431Z,35.60
2023-05-09T07:13:14.537Z,35.62
2023-05-09T07:14:14.567Z,35.58
2023-05-09T07:15:20.410Z,35.52
2023-05-09T07:16:15.671Z,35.47
2023-05-09T07:17:23.536Z,35.40
2023-05-09T07:18:15.668Z,35.36
2023-05-09T07:19:14.590Z,35.33
2023-05-09T07:20:14.558Z,35.35
2023-05-09T07:21:14.527Z,35.28
2023-05-09T07:22:14.537Z,35.27
2023-05-09T07:23:14.525Z,35.22
2023-05-09T07:24:14.533Z,35.19
2023-05-09T07:25:14.869Z,35.19
2023-05-09T07:26:14.557Z,35.16
2023-05-09T07:27:14.592Z,35.18
2023-05-09T07:28:14.609Z,35.09
2023-05-09T07:29:14.675Z,35.08
2023-05-09T07:30:14.892Z,35.05
2023-05-09T07:31:15.616Z,35.22
2023-05-09T07:32:14.815Z,35.77
2023-05-09T07:33:14.884Z,36.20
2023-05-09T07:34:15.003Z,35.86
2023-05-09T07:35:15.257Z,36.24
2023-05-09T07:36:15.070Z,36.88
2023-05-09T07:37:16.373Z,37.04
2023-05-09T07:38:15.101Z,37.46
2023-05-09T07:39:15.155Z,37.44
2023-05-09T07:40:15.487Z,37.01
2023-05-09T07:41:15.271Z,37.08
2023-05-09T07:42:15.268Z,37.03
2023-05-09T07:43:15.326Z,36.93
2023-05-09T07:44:15.378Z,37.10
2023-05-09T07:45:15.626Z,36.92
2023-05-09T07:46:15.526Z,36.89
2023-05-09T07:47:15.585Z,36.86
2023-05-09T07:48:15.627Z,37.06
2023-05-09T07:49:15.675Z,36.90
2023-05-09T07:50:15.871Z,36.93
2023-05-09T07:51:15.851Z,36.97
2023-05-09T07:52:15.867Z,36.98
2023-05-09T07:53:15.918Z,37.06
2023-05-09T07:54:16.045Z,37.10
2023-05-09T07:55:16.390Z,37.07
2023-05-09T07:56:16.140Z,37.19
2023-05-09T07:57:16.195Z,37.11
2023-05-09T07:58:16.256Z,37.15
2023-05-09T07:59:16.287Z,37.19
2023-05-09T08:00:16.353Z,37.11
2023-05-09T08:01:17.467Z,37.07
2023-05-09T08:02:16.537Z,37.29
2023-05-09T08:03:16.644Z,37.13
2023-05-09T08:04:16.566Z,37.37
2023-05-09T08:05:17.028Z,37.41
2023-05-09T08:06:16.768Z,37.27
2023-05-09T08:07:16.831Z,37.23
2023-05-09T08:08:16.834Z,37.25
2023-05-09T08:09:16.856Z,37.39
2023-05-09T08:10:16.940Z,37.23
2023-05-09T08:11:16.949Z,37.31
2023-05-09T08:12:17.055Z,37.20
2023-05-09T08:13:17.124Z,37.14
2023-05-09T08:14:17.115Z,36.94
2023-05-09T08:15:17.585Z,37.00
2023-05-09T08:16:17.300Z,37.12
2023-05-09T08:17:17.265Z,37.11
2023-05-09T08:18:17.369Z,37.07
2023-05-09T08:19:17.416Z,37.06
2023-05-09T08:20:17.468Z,37.16
2023-05-09T08:21:18.060Z,36.96
2023-05-09T08:22:17.606Z,36.83
2023-05-09T08:23:17.554Z,36.73
2023-05-09T08:24:17.594Z,36.52
2023-05-09T08:25:18.079Z,37.12
2023-05-09T08:26:18.101Z,37.29
2023-05-09T08:27:17.729Z,36.96
2023-05-09T08:28:18.127Z,36.57
2023-05-09T08:29:17.787Z,36.26
2023-05-09T08:30:17.805Z,36.20
2023-05-09T08:31:18.158Z,36.12
2023-05-09T08:32:17.884Z,36.05
2023-05-09T08:33:17.986Z,36.04
2023-05-09T08:34:18.037Z,35.78
2023-05-09T08:35:18.108Z,35.60
2023-05-09T08:36:18.149Z,35.50
2023-05-09T08:37:18.225Z,35.55
2023-05-09T08:38:18.296Z,35.58
2023-05-09T08:39:18.215Z,35.73
2023-05-09T08:40:18.225Z,35.71
2023-05-09T08:41:18.237Z,35.88
2023-05-09T08:42:18.219Z,36.32
2023-05-09T08:43:18.230Z,36.86
2023-05-09T08:44:18.235Z,36.89
2023-05-09T08:45:18.217Z,36.63
2023-05-09T08:46:18.267Z,36.69
2023-05-09T08:47:18.187Z,36.69
2023-05-09T08:48:18.246Z,36.62
2023-05-09T08:49:18.235Z,36.61
2023-05-09T08:50:18.440Z,36.96
2023-05-09T08:51:18.363Z,37.03
2023-05-09T08:52:18.415Z,37.04
2023-05-09T08:53:18.592Z,36.96
2023-05-09T08:54:20.088Z,37.07
2023-05-09T08:55:18.582Z,36.95
2023-05-09T08:56:18.452Z,36.93
2023-05-09T08:57:18.508Z,36.90
2023-05-09T08:58:18.624Z,36.79
2023-05-09T08:59:18.605Z,36.80
2023-05-09T09:00:20.435Z,36.73
2023-05-09T09:01:18.523Z,36.71
2023-05-09T09:02:18.563Z,36.80
2023-05-09T09:03:18.569Z,36.83
2023-05-09T09:04:18.563Z,36.84
2023-05-09T09:05:39.589Z,36.76
2023-05-09T09:06:19.545Z,36.71
2023-05-09T09:07:18.536Z,36.80
2023-05-09T09:08:18.586Z,36.70
2023-05-09T09:09:18.518Z,36.69
2023-05-09T09:10:18.627Z,36.66
2023-05-09T09:11:18.586Z,36.59
2023-05-09T09:12:18.531Z,36.63
2023-05-09T09:13:18.575Z,36.62
2023-05-09T09:14:18.549Z,36.58
2023-05-09T09:15:18.516Z,36.73
2023-05-09T09:16:18.557Z,36.68
2023-05-09T09:17:18.858Z,36.74
2023-05-09T09:18:18.470Z,36.86
2023-05-09T09:19:18.480Z,36.72
2023-05-09T09:20:18.461Z,36.67
2023-05-09T09:21:18.470Z,36.61
2023-05-09T09:22:18.466Z,36.62
2023-05-09T09:23:18.418Z,36.57
2023-05-09T09:24:18.398Z,36.63
2023-05-09T09:25:18.447Z,36.55
2023-05-09T09:26:18.602Z,36.60
2023-05-09T09:27:18.550Z,36.56
2023-05-09T09:28:18.670Z,36.51
2023-05-09T09:29:18.690Z,36.46
2023-05-09T09:30:18.739Z,36.51
2023-05-09T09:31:18.841Z,36.89
2023-05-09T09:32:18.865Z,37.23
2023-05-09T09:33:18.969Z,36.90
2023-05-09T09:34:18.972Z,36.84
2023-05-09T09:35:19.013Z,36.35
2023-05-09T09:36:18.992Z,36.31
2023-05-09T09:37:19.024Z,36.64
2023-05-09T09:38:19.020Z,36.53
2023-05-09T09:39:19.162Z,36.50
2023-05-09T09:40:19.212Z,36.52
2023-05-09T09:41:19.235Z,36.46
2023-05-09T09:42:19.400Z,36.41
2023-05-09T09:43:19.385Z,36.41
2023-05-09T09:44:19.658Z,36.36
2023-05-09T09:45:19.487Z,36.28
2023-05-09T09:46:19.552Z,36.25
2023-05-09T09:47:19.614Z,36.22
2023-05-09T09:48:19.646Z,36.18
2023-05-09T09:49:19.714Z,36.11
2023-05-09T09:50:19.826Z,36.11
2023-05-09T09:51:19.841Z,36.13
2023-05-09T09:52:19.913Z,36.13
2023-05-09T09:53:19.968Z,36.09
2023-05-09T09:54:20.015Z,36.01
2023-05-09T09:55:20.061Z,35.95
2023-05-09T09:56:20.155Z,35.95
2023-05-09T09:57:20.186Z,35.84
2023-05-09T09:58:20.345Z,35.87
2023-05-09T09:59:20.328Z,35.83
2023-05-09T10:00:20.380Z,35.76
2023-05-09T10:01:20.499Z,35.74
2023-05-09T10:02:20.475Z,35.74
2023-05-09T10:03:20.714Z,35.71
2023-05-09T10:04:20.612Z,35.68
2023-05-09T10:05:20.657Z,35.58
2023-05-09T10:06:20.769Z,35.49
2023-05-09T10:07:20.774Z,35.49
2023-05-09T10:08:20.852Z,35.44
2023-05-09T10:09:20.894Z,35.33
2023-05-09T10:10:20.966Z,35.33
2023-05-09T10:11:21.097Z,35.25
2023-05-09T10:12:21.111Z,35.20
2023-05-09T10:13:21.305Z,35.19
2023-05-09T10:14:21.241Z,35.11
2023-05-09T10:15:21.247Z,35.10
2023-05-09T10:16:28.506Z,35.04
2023-05-09T10:17:22.553Z,35.05
2023-05-09T10:18:21.451Z,34.97
2023-05-09T10:19:21.276Z,34.89
2023-05-09T10:20:21.252Z,34.90
2023-05-09T10:21:21.269Z,34.79
2023-05-09T10:22:21.248Z,34.77
2023-05-09T10:23:21.247Z,34.76
2023-05-09T10:24:21.239Z,34.74
2023-05-09T10:25:21.264Z,34.67
2023-05-09T10:26:21.223Z,34.77
2023-05-09T10:27:21.301Z,34.75
2023-05-09T10:28:21.215Z,35.01
2023-05-09T10:29:21.233Z,35.06
2023-05-09T10:30:21.351Z,35.00
2023-05-09T10:31:21.404Z,35.04
2023-05-09T10:32:21.428Z,35.09
2023-05-09T10:33:21.470Z,35.24
2023-05-09T10:34:21.564Z,35.31
2023-05-09T10:35:21.587Z,35.22
2023-05-09T10:36:21.617Z,35.26
2023-05-09T10:37:21.733Z,35.30
2023-05-09T10:38:21.769Z,35.33
2023-05-09T10:39:22.124Z,35.31
2023-05-09T10:40:21.904Z,35.20
2023-05-09T10:41:22.032Z,35.23
2023-05-09T10:42:22.022Z,35.20
2023-05-09T10:43:22.065Z,35.24
2023-05-09T10:44:22.148Z,35.55
2023-05-09T10:45:22.224Z,35.73
2023-05-09T10:46:22.384Z,35.31
2023-05-09T10:47:22.340Z,35.24
2023-05-09T10:48:22.366Z,35.30
2023-05-09T10:49:22.451Z,35.78
2023-05-09T10:50:22.524Z,35.79
2023-05-09T10:51:22.517Z,35.75
2023-05-09T10:52:22.578Z,35.80
2023-05-09T10:53:22.658Z,35.77
2023-05-09T10:54:22.716Z,35.87
2023-05-09T10:55:22.741Z,35.81
2023-05-09T10:56:22.830Z,35.84
2023-05-09T10:57:22.855Z,35.93
2023-05-09T10:58:22.928Z,35.81
2023-05-09T10:59:23.022Z,35.83
2023-05-09T11:00:23.023Z,35.74
2023-05-09T11:01:23.170Z,35.69
2023-05-09T11:02:23.284Z,35.70
2023-05-09T11:03:23.347Z,35.68
2023-05-09T11:04:23.277Z,35.74
2023-05-09T11:05:23.304Z,35.61
2023-05-09T11:06:23.353Z,35.57
2023-05-09T11:07:23.428Z,35.65
2023-05-09T11:08:23.491Z,35.65
2023-05-09T11:09:23.540Z,35.57
2023-05-09T11:10:23.586Z,35.65
2023-05-09T11:11:23.672Z,35.62
2023-05-09T11:12:23.675Z,35.65
2023-05-09T11:13:24.157Z,35.64
2023-05-09T11:14:23.827Z,35.64
2023-05-09T11:15:23.911Z,35.69
2023-05-09T11:16:24.032Z,35.55
2023-05-09T11:17:24.025Z,35.72
2023-05-09T11:18:24.129Z,35.08
2023-05-09T11:19:24.123Z,35.03
2023-05-09T11:20:24.682Z,33.76
2023-05-09T11:21:24.623Z,33.43
2023-05-09T11:22:24.641Z,33.00
2023-05-09T11:23:24.635Z,32.86
2023-05-09T11:24:24.655Z,32.91
2023-05-09T11:25:24.457Z,32.91
2023-05-09T11:26:24.523Z,32.75
2023-05-09T11:27:24.595Z,32.74
2023-05-09T11:28:24.645Z,32.65
2023-05-09T11:29:24.672Z,32.45
2023-05-09T11:30:24.771Z,32.32
2023-05-09T11:31:24.872Z,32.30
2023-05-09T11:32:24.911Z,32.28
2023-05-09T11:33:24.921Z,32.19
2023-05-09T11:34:25.034Z,31.65
2023-05-09T11:35:25.056Z,31.33
2023-05-09T11:36:25.066Z,31.18
2023-05-09T11:37:25.117Z,31.06
2023-05-09T11:38:25.165Z,30.84
2023-05-09T11:39:25.144Z,30.74
2023-05-09T11:40:25.186Z,30.93
2023-05-09T11:41:25.139Z,31.08
2023-05-09T11:42:25.106Z,31.07
2023-05-09T11:43:25.110Z,30.97
2023-05-09T11:44:25.104Z,30.91
2023-05-09T11:45:25.136Z,30.93
2023-05-09T11:46:25.131Z,30.89
2023-05-09T11:47:25.182Z,30.67
2023-05-09T11:48:25.191Z,29.90
2023-05-09T11:49:25.203Z,30.02
2023-05-09T11:50:25.359Z,30.12
2023-05-09T11:51:25.314Z,29.70
2023-05-09T11:52:25.355Z,29.53
2023-05-09T11:53:25.401Z,29.11
2023-05-09T11:54:25.498Z,29.14
2023-05-09T11:55:25.862Z,29.03
2023-05-09T11:56:25.512Z,28.94
2023-05-09T11:57:25.571Z,29.04
2023-05-09T11:58:25.560Z,29.07
2023-05-09T11:59:25.595Z,29.20
2023-05-09T12:00:25.668Z,29.34
2023-05-09T12:01:25.661Z,29.30
2023-05-09T12:02:25.752Z,29.66
2023-05-09T12:03:26.082Z,30.76
2023-05-09T12:04:25.770Z,30.27
2023-05-09T12:05:25.758Z,31.44
2023-05-09T12:06:25.851Z,30.94
2023-05-09T12:07:25.790Z,30.59
2023-05-09T12:08:25.805Z,30.32
2023-05-09T12:09:25.819Z,29.77
2023-05-09T12:10:25.790Z,29.99
2023-05-09T12:11:25.802Z,30.16
2023-05-09T12:12:25.763Z,30.30
2023-05-09T12:13:25.810Z,30.83
2023-05-09T12:14:25.800Z,31.23
2023-05-09T12:15:25.803Z,31.60
2023-05-09T12:16:25.930Z,32.20
2023-05-09T12:17:25.900Z,32.26
2023-05-09T12:18:25.912Z,32.49
2023-05-09T12:19:25.947Z,32.49
2023-05-09T12:20:25.972Z,32.76
2023-05-09T12:21:26.058Z,32.86
2023-05-09T12:22:26.215Z,32.94
2023-05-09T12:23:26.190Z,32.93
2023-05-09T12:24:26.269Z,33.09
2023-05-09T12:25:26.369Z,33.03
2023-05-09T12:26:26.354Z,33.06
2023-05-09T12:27:26.476Z,33.21
2023-05-09T12:28:26.485Z,33.20
2023-05-09T12:29:26.559Z,33.32
2023-05-09T12:30:26.652Z,33.40
2023-05-09T12:31:26.729Z,33.47
2023-05-09T12:32:26.781Z,33.42
2023-05-09T12:33:26.836Z,33.38
2023-05-09T12:34:26.879Z,33.68
2023-05-09T12:35:26.911Z,33.57
2023-05-09T12:36:26.988Z,33.71
2023-05-09T12:37:27.023Z,33.58
2023-05-09T12:38:27.159Z,33.66
2023-05-09T12:39:27.129Z,33.64
2023-05-09T12:40:27.199Z,33.70
2023-05-09T12:42:27.228Z,33.69
2023-05-09T12:43:27.250Z,33.60
2023-05-09T12:44:27.199Z,33.77
2023-05-09T12:45:27.218Z,33.76
2023-05-09T12:46:27.303Z,33.71
2023-05-09T12:47:27.253Z,33.64
2023-05-09T12:48:27.202Z,33.61
2023-05-09T12:49:27.212Z,33.69
2023-05-09T12:50:27.156Z,33.61
2023-05-09T12:51:27.153Z,33.65
2023-05-09T12:52:27.148Z,33.64
2023-05-09T12:53:27.137Z,33.68